TAF Text Data
IDs:
Format:
Raw Decoded Include METAR

Data at: 1427 UTC 19 Jul 2019

Region: TOP
KATL 191338Z 1914/2018 28004KT P6SM VCSH SCT035 BKN150
  FM191600 28005KT P6SM VCSH BKN040
  TEMPO 1917/1921 4SM TSRA BKN030CB
  FM200100 25005KT P6SM SCT040 BKN200
  FM200500 26005KT P6SM SCT250
  FM201500 26004KT P6SM BKN030


KBOS 191401Z 1914/2018 14006KT P6SM SCT030
  FM191700 16010KT P6SM SKC
  FM192000 20012KT P6SM SKC
  FM200000 23011KT P6SM SKC
  FM200700 27007KT P6SM SCT120
  FM201600 23012KT P6SM FEW250


KBWI 191134Z 1912/2018 VRB03KT P6SM FEW250
  FM192100 22006KT P6SM FEW060
  FM200400 24004KT P6SM SCT200
  FM201000 27004KT P6SM FEW200


KCLE 191303Z 1913/2018 21010KT P6SM SCT250
  TEMPO 1913/1915 BKN015
  FM191500 23012G20KT P6SM BKN250
  FM200000 22010KT P6SM BKN250
  PROB30 2000/2003 5SM -TSRA BKN050CB
  FM200600 22010KT 6SM HZ BKN250


KCLT 191357Z 1914/2018 24003KT P6SM BKN250
  FM191600 00000KT P6SM SCT045 BKN250
  FM192000 24006KT P6SM VCSH SCT060 BKN250
  FM200200 24003KT P6SM BKN250
  FM201400 23006KT P6SM SCT050


KCVG 191358Z 1914/2018 24006KT P6SM SCT009 BKN020
  FM191600 22011KT P6SM SCT045
  FM200100 21006KT P6SM SKC
  FM201500 22009KT P6SM FEW050


KDCA 191134Z 1912/2018 29004KT P6SM FEW250
  FM191700 25005KT P6SM FEW060
  FM200800 25004KT P6SM FEW250
  FM201200 28004KT P6SM FEW200


KDEN 191122Z 1912/2018 21012KT P6SM FEW220
  FM191800 05007KT P6SM FEW140 SCT220
  FM200100 09008KT P6SM SCT140 BKN200
  FM200300 14009KT P6SM FEW140 BKN200
  FM200500 22009KT P6SM FEW150 SCT220
  FM201100 29008KT P6SM SCT150 BKN200
  FM201600 01012KT P6SM SCT120 BKN180


KDFW 191135Z 1912/2018 17015KT P6SM FEW050

KDTW 191251Z 1913/2018 22012KT P6SM SCT045 BKN070 OVC200
  FM191700 23013G20KT P6SM BKN050
  TEMPO 1919/1923 2SM TSRA OVC030CB
  FM200100 20008KT P6SM SCT080 SCT250


KEWR 191344Z 1914/2018 23007KT P6SM SCT015 SCT250
  TEMPO 1914/1915 BKN015
  FM191800 23012G18KT P6SM FEW050 FEW250
  FM200000 24009KT P6SM SCT050
  FM200500 25005KT P6SM SCT050
  FM201500 27009KT P6SM SCT050


KFLL 191128Z 1912/2018 12008KT P6SM VCSH SCT025 BKN150
  FM191300 12011KT P6SM VCSH SCT025 BKN150
  FM191700 12010KT P6SM SCT030 BKN250
  FM200200 11006KT P6SM SCT025 SCT250
  FM201500 12010KT P6SM FEW025 SCT250


KIAD 191134Z 1912/2018 VRB03KT P6SM FEW200
  FM200600 VRB03KT P6SM FEW250
  FM201300 29004KT P6SM SCT200
  FM201700 28004KT P6SM SCT045


KIAH 191120Z 1912/2018 VRB03KT P6SM SCT020
  FM191500 16007KT P6SM SCT045 BKN100
  FM192000 16009KT P6SM FEW045 SCT080
  FM200800 VRB03KT P6SM SCT020


KJFK 191335Z 1914/2018 23005KT P6SM SCT015 SCT250
  TEMPO 1914/1915 BKN015
  FM191500 21007KT P6SM FEW030 FEW150
  FM191800 19012KT P6SM FEW035 FEW250
  FM192000 19017KT P6SM FEW035 FEW250
  FM200100 22011KT P6SM SCT035
  FM200600 25006KT P6SM SCT050
  FM201500 24010KT P6SM SCT050


KLAS 191347Z 1914/2018 16009KT P6SM FEW250
  FM191900 20012G19KT P6SM SCT250
  FM200300 20010KT P6SM FEW250
  FM201500 VRB05KT P6SM FEW250


KLAX 191120Z 1912/2018 25005KT P6SM OVC018
  FM191800 26008KT P6SM SCT022
  FM192100 26012KT P6SM SKC
  FM200400 26008KT P6SM BKN010
  FM200800 26007KT P6SM OVC015
  FM201300 VRB03KT P6SM OVC018
  FM201700 23005KT P6SM BKN022


KLGA 191340Z 1914/2018 VRB04KT P6SM BKN015
  TEMPO 1914/1915 SCT015 SCT250
  FM191500 24008KT P6SM SCT015 SCT150
  FM192000 19014G19KT P6SM FEW045 FEW250
  FM200000 24010KT P6SM SCT045
  FM200600 24006KT P6SM SCT050
  FM201500 24010KT P6SM SCT050


KMCO 191123Z 1912/2018 00000KT P6SM FEW030 FEW110 SCT250
  FM191400 18005KT P6SM SCT035
  FM191900 13008KT P6SM VCTS SCT040CB BKN250
  TEMPO 1920/1923 3SM TSRA BKN025CB
  FM200100 VRB02KT P6SM FEW050 SCT100 BKN250
  FM201300 16004KT P6SM FEW040 SCT250


KMDW 191127Z 1912/2018 22009KT P6SM OVC250
  FM191500 23012G17KT P6SM SCT100
  FM192300 22010KT P6SM FEW100
  FM201500 23012G17KT P6SM SCT250


KMEM 191129Z 1912/2018 20005KT P6SM FEW030 BKN200
  FM191600 22009KT P6SM SCT040 SCT150
  FM200100 19005KT P6SM FEW040 SCT150
  FM201400 22007KT P6SM SCT040 BKN150


KMIA 191128Z 1912/2018 12005KT P6SM VCSH FEW025 SCT040 BKN250
  FM191300 12011KT P6SM VCSH SCT025 BKN150
  FM191700 12008KT P6SM SCT030 BKN250
  FM200200 10006KT P6SM SCT025 SCT250
  FM201500 12010KT P6SM SCT030 SCT250


KMSP 191120Z 1912/2018 VRB02KT P6SM FEW250
  FM191600 15006KT P6SM SCT050
  FM192100 16006KT P6SM SCT060
  PROB30 1921/2001 5SM TSRA BKN050CB
  FM200600 36007KT P6SM FEW120 SCT250
  FM201100 35009KT P6SM VCSH OVC030


KORD 191127Z 1912/2018 22009KT P6SM OVC250
  FM191500 24012G18KT P6SM SCT120
  FM192300 23010KT P6SM FEW100
  FM201500 23012G18KT P6SM SCT250


KPDX 191120Z 1912/2012 31005KT P6SM SKC
  FM200000 33013G19KT P6SM FEW250
  FM200400 32006KT P6SM SKC


KPHL 191350Z 1914/2018 21005KT P6SM SCT006 SCT015
  TEMPO 1914/1915 BKN015
  FM191500 23010KT P6SM SCT040
  FM200100 25006KT P6SM SCT040


KPHX 191120Z 1912/2018 VRB04KT P6SM SCT150 BKN200
  FM191800 26007KT P6SM SCT150 BKN200
  FM192200 28012G18KT P6SM FEW150 SCT250
  FM200700 29006KT P6SM FEW150 FEW250
  FM201300 11006KT P6SM FEW140


KPIT 191329Z 1913/2018 22005KT P6SM BKN015
  FM191800 25012G18KT P6SM BKN035
  FM200100 VRB04KT P6SM SCT035


KSAN 191120Z 1912/2018 VRB04KT P6SM OVC012
  FM191730 28010KT P6SM FEW018
  FM200300 29005KT P6SM OVC014
  FM201700 28007KT P6SM SCT018


KSEA 191120Z 1912/2018 VRB04KT P6SM BKN020 OVC040
  FM191800 30006KT P6SM BKN040 BKN070
  FM192200 32009KT P6SM SCT070
  FM200300 02006KT P6SM SKC


KSFO 191144Z 1912/2018 20006KT P6SM SCT010
  FM191600 19008KT P6SM FEW010
  FM192100 24012KT P6SM FEW012
  FM200300 26009KT P6SM FEW012
  FM200800 VRB05KT P6SM SCT011
  FM201600 VRB03KT P6SM FEW010


KSLC 191120Z 1912/2018 17011KT P6SM SKC
  FM191400 18013G23KT P6SM SKC
  FM191800 30010KT P6SM SKC
  FM200600 35005KT P6SM FEW150


KSTL 191135Z 1912/2018 21007KT P6SM SKC
  FM191500 20010G16KT P6SM FEW040 SCT250
  FM200100 20009KT P6SM FEW250


KTPA 191126Z 1912/2018 VRB03KT P6SM FEW030 SCT250
  FM191500 17005KT P6SM FEW035 SCT200
  FM191800 22006KT P6SM VCTS SCT030CB SCT080 BKN200
  FM192100 28006KT P6SM VCTS SCT030CB BKN100 BKN200
  FM200100 VRB04KT P6SM SCT030 SCT200
  FM201500 18005KT P6SM FEW200